createdAt,value
2022-12-04T00:01:14.459Z,64.20
2022-12-04T00:03:42.061Z,63.90
2022-12-04T00:06:11.682Z,64.27
2022-12-04T00:08:39.350Z,65.29
2022-12-04T00:11:06.999Z,65.43
2022-12-04T00:13:34.408Z,65.07
2022-12-04T00:16:01.357Z,65.10
2022-12-04T00:18:27.863Z,65.23
2022-12-04T00:20:54.544Z,64.60
2022-12-04T00:23:21.075Z,64.73
2022-12-04T00:25:48.831Z,64.52
2022-12-04T00:28:17.045Z,64.84
2022-12-04T00:30:45.225Z,65.45
2022-12-04T00:33:13.258Z,64.85
2022-12-04T00:35:42.961Z,64.11
2022-12-04T00:38:09.912Z,63.60
2022-12-04T00:40:36.450Z,64.31
2022-12-04T00:43:03.285Z,64.62
2022-12-04T00:45:29.818Z,64.42
2022-12-04T00:47:56.290Z,66.57
2022-12-04T00:50:22.959Z,65.89
2022-12-04T00:52:49.402Z,64.92
2022-12-04T00:55:15.866Z,66.57
2022-12-04T00:57:42.383Z,67.23
2022-12-04T01:00:09.174Z,67.80
2022-12-04T01:02:35.782Z,65.71
2022-12-04T01:05:02.360Z,66.28
2022-12-04T01:07:28.902Z,65.86
2022-12-04T01:09:55.562Z,65.32
2022-12-04T01:12:22.245Z,64.99
2022-12-04T01:14:48.752Z,65.17
2022-12-04T01:17:15.215Z,66.85
2022-12-04T01:19:41.701Z,65.25
2022-12-04T01:22:08.176Z,64.27
2022-12-04T01:24:34.632Z,64.70
2022-12-04T01:27:01.115Z,64.65
2022-12-04T01:29:27.632Z,65.35
2022-12-04T01:31:54.130Z,65.04
2022-12-04T01:34:20.630Z,66.04
2022-12-04T01:36:48.363Z,65.91
2022-12-04T01:39:14.766Z,66.20
2022-12-04T01:41:41.211Z,67.57
2022-12-04T01:44:25.761Z,66.55
2022-12-04T01:46:57.064Z,67.97
2022-12-04T01:49:46.674Z,67.01
2022-12-04T01:52:20.738Z,66.67
2022-12-04T01:54:57.243Z,66.49
2022-12-04T01:57:26.210Z,65.85
2022-12-04T01:59:57.918Z,65.39
2022-12-04T02:02:29.409Z,66.41
2022-12-04T02:04:56.374Z,66.11
2022-12-04T02:07:22.886Z,66.11
2022-12-04T02:09:55.822Z,66.11
2022-12-04T02:12:41.519Z,67.81
2022-12-04T02:15:17.105Z,67.58
2022-12-04T02:18:11.575Z,67.63
2022-12-04T02:20:50.082Z,68.19
2022-12-04T02:23:20.975Z,68.16
2022-12-04T02:26:02.002Z,67.00
2022-12-04T02:28:47.194Z,68.42
2022-12-04T02:31:23.158Z,67.66
2022-12-04T02:34:10.967Z,67.52
2022-12-04T02:36:45.122Z,68.29
2022-12-04T02:39:19.072Z,69.46
2022-12-04T02:41:54.064Z,70.12
2022-12-04T02:44:22.540Z,68.51
2022-12-04T02:46:52.964Z,69.25
2022-12-04T02:49:27.419Z,69.78
2022-12-04T02:51:55.353Z,69.35
2022-12-04T02:54:26.276Z,71.17
2022-12-04T02:56:53.949Z,70.04
2022-12-04T02:59:24.994Z,70.63
2022-12-04T03:01:54.448Z,70.01
2022-12-04T03:04:23.638Z,69.09
2022-12-04T03:06:56.201Z,69.32
2022-12-04T03:09:48.545Z,71.05
2022-12-04T03:12:29.619Z,71.51
2022-12-04T03:15:23.678Z,72.19
2022-12-04T03:17:55.384Z,70.78
2022-12-04T03:20:22.317Z,70.86
2022-12-04T03:22:52.365Z,70.79
2022-12-04T03:25:18.875Z,70.01
2022-12-04T03:27:58.365Z,71.03
2022-12-04T03:30:24.844Z,72.16
2022-12-04T03:33:11.559Z,71.55
2022-12-04T03:35:52.560Z,70.23
2022-12-04T03:38:25.658Z,70.68
2022-12-04T03:41:06.039Z,71.30
2022-12-04T03:43:38.096Z,70.92
2022-12-04T03:46:37.018Z,70.60
2022-12-04T03:49:13.151Z,70.39
2022-12-04T03:51:55.251Z,71.64
2022-12-04T03:54:27.213Z,70.40
2022-12-04T03:56:57.481Z,70.15
2022-12-04T03:59:29.926Z,71.59
2022-12-04T04:01:58.169Z,70.23
2022-12-04T04:04:33.909Z,70.31
2022-12-04T04:07:09.641Z,70.55
2022-12-04T04:09:40.363Z,70.04
2022-12-04T04:12:21.126Z,71.31
2022-12-04T04:15:09.658Z,70.99
2022-12-04T04:17:58.194Z,71.42
2022-12-04T04:20:48.962Z,69.85
2022-12-04T04:23:36.595Z,69.37
2022-12-04T04:26:04.488Z,69.96
2022-12-04T04:28:30.956Z,71.86
2022-12-04T04:31:05.791Z,71.45
2022-12-04T04:33:35.856Z,70.72
2022-12-04T04:36:15.587Z,72.07
2022-12-04T04:39:07.692Z,71.36
2022-12-04T04:41:41.751Z,71.88
2022-12-04T04:44:15.515Z,73.24
2022-12-04T04:46:46.274Z,73.15
2022-12-04T04:49:14.151Z,72.11
2022-12-04T04:51:40.826Z,72.33
2022-12-04T04:54:10.496Z,72.70
2022-12-04T04:56:44.471Z,71.59
2022-12-04T04:59:11.416Z,70.72
2022-12-04T05:01:39.148Z,70.39
2022-12-04T05:04:06.509Z,71.18
2022-12-04T05:06:33.053Z,72.73
2022-12-04T05:09:00.047Z,70.96
2022-12-04T05:11:26.490Z,71.97
2022-12-04T05:13:53.020Z,70.99
2022-12-04T05:16:19.648Z,72.07
2022-12-04T05:19:06.156Z,71.99
2022-12-04T05:21:33.300Z,71.76
2022-12-04T05:24:00.061Z,72.25
2022-12-04T05:26:26.595Z,73.60
2022-12-04T05:28:53.055Z,71.11
2022-12-04T05:31:19.781Z,72.51
2022-12-04T05:33:46.264Z,73.30
2022-12-04T05:36:13.420Z,72.86
2022-12-04T05:38:39.897Z,73.11
2022-12-04T05:41:06.686Z,72.02
2022-12-04T05:43:33.545Z,71.46
2022-12-04T05:46:07.778Z,72.88
2022-12-04T05:48:35.577Z,72.73
2022-12-04T05:51:09.882Z,72.72
2022-12-04T05:53:37.034Z,72.12
2022-12-04T05:56:04.789Z,72.76
2022-12-04T05:58:33.739Z,72.13
2022-12-04T06:01:00.187Z,72.16
2022-12-04T06:03:26.656Z,71.37
2022-12-04T06:05:53.144Z,72.17
2022-12-04T06:08:19.643Z,73.00
2022-12-04T06:10:46.251Z,73.82
2022-12-04T06:13:12.720Z,72.37
2022-12-04T06:15:40.074Z,72.18
2022-12-04T06:18:06.816Z,72.58
2022-12-04T06:20:33.902Z,73.18
2022-12-04T06:23:00.445Z,73.94
2022-12-04T06:25:26.952Z,73.22
2022-12-04T06:27:53.450Z,74.26
2022-12-04T06:30:19.959Z,75.40
2022-12-04T06:32:46.387Z,74.19
2022-12-04T06:35:12.863Z,72.61
2022-12-04T06:37:39.386Z,74.38
2022-12-04T06:40:06.589Z,73.50
2022-12-04T06:42:33.036Z,73.06
2022-12-04T06:44:59.520Z,72.66
2022-12-04T06:47:26.335Z,73.46
2022-12-04T06:49:53.042Z,73.28
2022-12-04T06:52:19.616Z,72.27
2022-12-04T06:54:46.165Z,73.28
2022-12-04T06:57:12.612Z,73.05
2022-12-04T06:59:39.204Z,73.23
2022-12-04T07:02:05.717Z,73.40
2022-12-04T07:04:32.167Z,73.94
2022-12-04T07:06:58.674Z,74.55
2022-12-04T07:09:25.113Z,72.93
2022-12-04T07:11:53.037Z,74.43
2022-12-04T07:14:19.469Z,74.69
2022-12-04T07:16:46.022Z,73.12
2022-12-04T07:19:14.150Z,75.01
2022-12-04T07:21:41.395Z,75.41
2022-12-04T07:24:08.127Z,75.48
2022-12-04T07:26:34.607Z,75.33
2022-12-04T07:29:01.129Z,74.84
2022-12-04T07:31:29.568Z,75.16
2022-12-04T07:33:57.370Z,75.23
2022-12-04T07:36:24.882Z,75.25
2022-12-04T07:38:51.803Z,75.86
2022-12-04T07:41:19.205Z,74.03
2022-12-04T07:43:45.962Z,74.36
2022-12-04T07:46:15.504Z,74.28
2022-12-04T07:48:42.126Z,74.33
2022-12-04T07:51:17.316Z,73.42
2022-12-04T07:53:44.614Z,73.93
2022-12-04T07:56:13.265Z,74.02
2022-12-04T07:58:40.397Z,74.53
2022-12-04T08:01:20.980Z,73.88
2022-12-04T08:03:49.235Z,74.14
2022-12-04T08:06:20.507Z,73.95
2022-12-04T08:08:47.733Z,73.53
2022-12-04T08:11:17.131Z,73.05
2022-12-04T08:13:44.056Z,74.23
2022-12-04T08:16:12.127Z,75.56
2022-12-04T08:18:38.683Z,74.45
2022-12-04T08:21:14.027Z,74.90
2022-12-04T08:23:42.042Z,75.26
2022-12-04T08:26:09.143Z,75.08
2022-12-04T08:28:36.498Z,74.85
2022-12-04T08:31:13.739Z,74.26
2022-12-04T08:33:41.138Z,75.31
2022-12-04T08:36:09.902Z,75.03
2022-12-04T08:38:36.947Z,74.95
2022-12-04T08:41:08.383Z,75.37
2022-12-04T08:43:34.966Z,76.52
2022-12-04T08:46:03.767Z,75.24
2022-12-04T08:48:30.609Z,74.44
2022-12-04T08:50:57.141Z,74.85
2022-12-04T08:53:24.203Z,74.46
2022-12-04T08:55:51.380Z,74.33
2022-12-04T08:58:18.698Z,74.55
2022-12-04T09:00:45.873Z,75.01
2022-12-04T09:03:17.815Z,73.93
2022-12-04T09:05:45.963Z,75.33
2022-12-04T09:08:16.946Z,73.42
2022-12-04T09:10:44.320Z,74.18
2022-12-04T09:13:10.789Z,73.88
2022-12-04T09:15:40.578Z,74.07
2022-12-04T09:18:08.385Z,74.06
2022-12-04T09:20:35.244Z,74.71
2022-12-04T09:23:04.317Z,74.10
2022-12-04T09:25:32.219Z,74.77
2022-12-04T09:27:58.685Z,75.41
2022-12-04T09:30:25.160Z,75.38
2022-12-04T09:32:51.675Z,74.21
2022-12-04T09:35:18.239Z,73.77
2022-12-04T09:37:44.784Z,73.22
2022-12-04T09:41:06.964Z,73.47
2022-12-04T09:43:56.403Z,73.43
2022-12-04T09:46:29.771Z,74.65
2022-12-04T09:48:59.019Z,75.42
2022-12-04T09:51:26.467Z,74.71
2022-12-04T09:53:59.395Z,73.25
2022-12-04T09:56:29.233Z,73.98
2022-12-04T09:59:11.252Z,73.83
2022-12-04T10:01:47.154Z,73.64
2022-12-04T10:04:15.742Z,74.03
2022-12-04T10:07:19.473Z,75.50
2022-12-04T10:09:52.863Z,74.21
2022-12-04T10:12:29.870Z,73.40
2022-12-04T10:15:19.038Z,74.03
2022-12-04T10:17:54.647Z,73.55
2022-12-04T10:20:45.849Z,74.39
2022-12-04T10:23:31.133Z,75.26
2022-12-04T10:25:57.727Z,74.59
2022-12-04T10:28:41.740Z,73.62
2022-12-04T10:31:13.916Z,74.59
2022-12-04T10:33:56.239Z,73.71
2022-12-04T10:36:25.507Z,74.09
2022-12-04T10:38:59.194Z,72.92
2022-12-04T10:41:41.036Z,74.53
2022-12-04T10:44:13.808Z,73.91
2022-12-04T10:46:45.738Z,72.68
2022-12-04T10:49:20.193Z,72.46
2022-12-04T10:51:47.341Z,73.17
2022-12-04T10:54:31.472Z,73.47
2022-12-04T10:57:00.495Z,72.46
2022-12-04T10:59:28.213Z,72.75
2022-12-04T11:02:21.193Z,73.68
2022-12-04T11:04:56.993Z,73.18
2022-12-04T11:07:26.356Z,71.91
2022-12-04T11:10:26.270Z,71.04
2022-12-04T11:13:01.302Z,72.24
2022-12-04T11:15:28.178Z,72.69
2022-12-04T11:17:54.686Z,73.49
2022-12-04T11:20:26.551Z,71.36
2022-12-04T11:22:57.777Z,73.20
2022-12-04T11:25:31.190Z,73.57
2022-12-04T11:28:00.432Z,73.33
2022-12-04T11:30:35.858Z,71.47
2022-12-04T11:33:03.492Z,70.40
2022-12-04T11:35:30.739Z,72.29
2022-12-04T11:38:12.797Z,70.88
2022-12-04T11:40:39.474Z,71.21
2022-12-04T11:43:13.939Z,70.30
2022-12-04T11:45:40.672Z,70.67
2022-12-04T11:48:16.113Z,70.14
2022-12-04T11:51:06.198Z,71.87
2022-12-04T11:53:54.242Z,72.05
2022-12-04T11:56:34.565Z,70.87
2022-12-04T11:59:30.305Z,71.41
2022-12-04T12:02:17.057Z,70.53
2022-12-04T12:04:55.783Z,70.76
2022-12-04T12:07:40.791Z,70.17
2022-12-04T12:10:29.946Z,71.48
2022-12-04T12:13:02.700Z,72.02
2022-12-04T12:15:57.334Z,70.72
2022-12-04T12:18:38.243Z,70.38
2022-12-04T12:21:27.219Z,70.40
2022-12-04T12:24:20.775Z,70.06
2022-12-04T12:27:25.601Z,70.77
2022-12-04T12:30:04.787Z,71.96
2022-12-04T12:33:00.414Z,70.34
2022-12-04T12:35:50.617Z,71.59
2022-12-04T12:38:27.019Z,71.32
2022-12-04T12:40:57.535Z,72.25
2022-12-04T12:43:31.038Z,72.55
2022-12-04T12:46:08.528Z,71.11
2022-12-04T12:48:58.413Z,70.55
2022-12-04T12:51:43.843Z,71.04
2022-12-04T12:54:34.809Z,72.56
2022-12-04T12:57:13.683Z,72.12
2022-12-04T12:59:47.895Z,72.63
2022-12-04T13:02:22.808Z,70.92
2022-12-04T13:04:51.059Z,71.48
2022-12-04T13:07:17.666Z,73.46
2022-12-04T13:09:50.760Z,73.15
2022-12-04T13:12:18.646Z,72.99
2022-12-04T13:14:49.043Z,71.99
2022-12-04T13:17:37.515Z,73.47
2022-12-04T13:20:17.062Z,73.74
2022-12-04T13:22:58.896Z,72.99
2022-12-04T13:25:53.004Z,72.69
2022-12-04T13:29:01.055Z,72.91
2022-12-04T13:31:43.298Z,72.28
2022-12-04T13:34:09.757Z,71.90
2022-12-04T13:36:51.532Z,72.49
2022-12-04T13:39:28.030Z,73.06
2022-12-04T13:42:02.540Z,72.56
2022-12-04T13:44:29.973Z,71.70
2022-12-04T13:46:59.250Z,72.92
2022-12-04T13:49:27.495Z,72.83
2022-12-04T13:51:56.520Z,72.96
2022-12-04T13:54:24.790Z,72.23
2022-12-04T13:56:53.880Z,73.70
2022-12-04T13:59:30.975Z,73.44
2022-12-04T14:02:04.955Z,71.66
2022-12-04T14:04:46.275Z,71.62
2022-12-04T14:07:42.812Z,72.79
2022-12-04T14:10:15.381Z,72.58
2022-12-04T14:12:49.486Z,72.03
2022-12-04T14:15:27.517Z,71.41
2022-12-04T14:18:03.308Z,72.31
2022-12-04T14:20:32.235Z,71.67
2022-12-04T14:23:26.732Z,72.52
2022-12-04T14:25:58.793Z,73.56
2022-12-04T14:28:27.764Z,73.35
2022-12-04T14:31:13.406Z,71.16
2022-12-04T14:33:44.705Z,71.53
2022-12-04T14:36:18.971Z,72.59
2022-12-04T14:38:47.930Z,72.45
2022-12-04T14:41:14.594Z,72.69
2022-12-04T14:43:44.736Z,73.63
2022-12-04T14:46:26.648Z,72.29
2022-12-04T14:49:28.555Z,73.12
2022-12-04T14:52:07.787Z,73.03
2022-12-04T14:55:01.239Z,71.70
2022-12-04T14:57:49.213Z,72.18
2022-12-04T15:00:18.325Z,70.25
2022-12-04T15:02:46.328Z,71.61
2022-12-04T15:05:20.240Z,71.34
2022-12-04T15:07:49.503Z,71.95
2022-12-04T15:10:46.996Z,72.04
2022-12-04T15:13:25.404Z,71.46
2022-12-04T15:15:51.972Z,71.47
2022-12-04T15:18:18.613Z,73.52
2022-12-04T15:20:47.947Z,72.82
2022-12-04T15:23:17.461Z,73.02
2022-12-04T15:25:46.213Z,72.52
2022-12-04T15:28:17.292Z,72.59
2022-12-04T15:30:44.168Z,72.35
2022-12-04T15:33:21.523Z,71.78
2022-12-04T15:35:54.292Z,72.62
2022-12-04T15:38:20.967Z,70.47
2022-12-04T15:40:54.559Z,73.01
2022-12-04T15:43:32.636Z,72.51
2022-12-04T15:45:59.372Z,73.95
2022-12-04T15:48:30.832Z,72.35
2022-12-04T15:51:06.303Z,72.49
2022-12-04T15:53:36.626Z,74.02
2022-12-04T15:56:05.982Z,74.81
2022-12-04T15:58:38.310Z,74.94
2022-12-04T16:01:10.415Z,76.05
2022-12-04T16:03:42.967Z,75.49
2022-12-04T16:06:26.750Z,77.63
2022-12-04T16:08:54.077Z,76.30
2022-12-04T16:11:20.499Z,77.42
2022-12-04T16:14:08.720Z,77.13
2022-12-04T16:16:37.087Z,78.15
2022-12-04T16:19:08.992Z,78.65
2022-12-04T16:21:35.674Z,76.27
2022-12-04T16:24:03.840Z,77.15
2022-12-04T16:26:30.518Z,76.52
2022-12-04T16:28:57.030Z,77.46
2022-12-04T16:31:23.895Z,76.08
2022-12-04T16:33:50.394Z,76.04
2022-12-04T16:36:17.051Z,75.44
2022-12-04T16:38:43.515Z,77.94
2022-12-04T16:41:14.745Z,78.68
2022-12-04T16:43:41.419Z,77.97
2022-12-04T16:46:13.312Z,78.13
2022-12-04T16:48:41.425Z,78.71
2022-12-04T16:51:15.472Z,79.93
2022-12-04T16:53:41.906Z,79.62
2022-12-04T16:56:09.056Z,80.25
2022-12-04T16:58:36.228Z,80.54
2022-12-04T17:01:03.914Z,78.68
2022-12-04T17:03:32.421Z,78.23
2022-12-04T17:06:00.494Z,77.86
2022-12-04T17:08:27.617Z,78.49
2022-12-04T17:10:54.556Z,78.78
2022-12-04T17:13:21.660Z,78.21
2022-12-04T17:15:48.863Z,79.61
2022-12-04T17:18:20.716Z,78.92
2022-12-04T17:20:47.881Z,81.51
2022-12-04T17:23:14.399Z,80.30
2022-12-04T17:25:41.009Z,79.69
2022-12-04T17:28:08.287Z,79.74
2022-12-04T17:30:36.486Z,78.95
2022-12-04T17:33:04.581Z,77.72
2022-12-04T17:35:31.116Z,80.21
2022-12-04T17:38:03.817Z,78.64
2022-12-04T17:40:32.419Z,78.69
2022-12-04T17:42:59.479Z,79.81
2022-12-04T17:45:26.040Z,79.99
2022-12-04T17:47:52.482Z,81.62
2022-12-04T17:50:18.921Z,80.96
2022-12-04T17:52:45.378Z,80.70
2022-12-04T17:55:12.179Z,79.34
2022-12-04T17:57:41.951Z,81.38
2022-12-04T18:00:09.253Z,81.33
2022-12-04T18:02:36.602Z,81.94
2022-12-04T18:05:03.353Z,81.14
2022-12-04T18:07:31.185Z,78.73
2022-12-04T18:09:57.985Z,79.77
2022-12-04T18:12:24.953Z,81.42
2022-12-04T18:14:51.463Z,81.82
2022-12-04T18:17:20.697Z,80.53
2022-12-04T18:19:47.235Z,80.93
2022-12-04T18:22:13.724Z,80.39
2022-12-04T18:24:40.262Z,82.24
2022-12-04T18:27:07.706Z,81.14
2022-12-04T18:29:34.218Z,80.30
2022-12-04T18:32:00.887Z,81.31
2022-12-04T18:34:27.416Z,82.88
2022-12-04T18:36:53.981Z,81.07
2022-12-04T18:39:22.795Z,80.89
2022-12-04T18:41:49.574Z,81.10
2022-12-04T18:44:17.387Z,80.65
2022-12-04T18:46:44.073Z,80.31
2022-12-04T18:49:11.112Z,81.29
2022-12-04T18:51:39.859Z,81.56
2022-12-04T18:54:26.730Z,81.44
2022-12-04T18:56:53.196Z,81.49
2022-12-04T18:59:22.238Z,81.29
2022-12-04T19:01:52.224Z,82.41
2022-12-04T19:04:21.021Z,81.84
2022-12-04T19:06:50.342Z,81.32
2022-12-04T19:09:19.869Z,81.87
2022-12-04T19:11:46.631Z,81.35
2022-12-04T19:14:22.744Z,80.96
2022-12-04T19:16:49.955Z,83.83
2022-12-04T19:19:16.929Z,81.73
2022-12-04T19:21:43.652Z,82.16
2022-12-04T19:24:10.881Z,80.69
2022-12-04T19:26:37.508Z,81.60
2022-12-04T19:29:04.948Z,81.13
2022-12-04T19:31:33.936Z,80.53
2022-12-04T19:34:01.058Z,80.77
2022-12-04T19:36:29.655Z,80.41
2022-12-04T19:38:59.812Z,81.33
2022-12-04T19:41:30.220Z,81.83
2022-12-04T19:43:59.205Z,81.76
2022-12-04T19:46:28.451Z,81.20
2022-12-04T19:48:58.351Z,82.23
2022-12-04T19:51:25.548Z,82.42
2022-12-04T19:53:53.568Z,82.21
2022-12-04T19:56:24.449Z,82.78
2022-12-04T19:58:52.497Z,83.06
2022-12-04T20:01:21.684Z,81.89
2022-12-04T20:03:48.468Z,81.93
2022-12-04T20:06:18.167Z,83.72
2022-12-04T20:08:45.503Z,81.71
2022-12-04T20:11:17.654Z,83.85
2022-12-04T20:13:45.903Z,82.92
2022-12-04T20:16:14.441Z,84.22
2022-12-04T20:18:42.502Z,83.29
2022-12-04T20:21:13.324Z,84.07
2022-12-04T20:23:41.738Z,82.29
2022-12-04T20:26:10.387Z,83.91
2022-12-04T20:28:37.314Z,82.93
2022-12-04T20:31:19.307Z,82.39
2022-12-04T20:33:47.719Z,85.13
2022-12-04T20:36:15.792Z,83.51
2022-12-04T20:38:42.599Z,84.78
2022-12-04T20:41:10.468Z,84.38
2022-12-04T20:43:37.200Z,84.03
2022-12-04T20:46:16.188Z,85.15
2022-12-04T20:48:49.509Z,84.03
2022-12-04T20:51:21.653Z,83.46
2022-12-04T20:53:49.762Z,84.08
2022-12-04T20:56:17.454Z,83.63
2022-12-04T20:58:44.718Z,84.23
2022-12-04T21:01:17.364Z,84.95
2022-12-04T21:03:44.556Z,85.36
2022-12-04T21:06:21.334Z,84.87
2022-12-04T21:08:54.283Z,84.51
2022-12-04T21:11:25.043Z,83.82
2022-12-04T21:14:11.301Z,84.65
2022-12-04T21:16:37.808Z,83.84
2022-12-04T21:19:05.884Z,83.91
2022-12-04T21:21:32.927Z,84.76
2022-12-04T21:23:59.706Z,83.79
2022-12-04T21:26:31.217Z,83.97
2022-12-04T21:28:58.415Z,85.70
2022-12-04T21:31:28.038Z,84.98
2022-12-04T21:33:56.052Z,84.62
2022-12-04T21:36:22.784Z,84.76
2022-12-04T21:38:49.359Z,84.51
2022-12-04T21:41:34.774Z,84.83
2022-12-04T21:44:04.679Z,84.42
2022-12-04T21:46:32.133Z,83.68
2022-12-04T21:48:59.443Z,85.82
2022-12-04T21:51:55.739Z,86.35
2022-12-04T21:54:13.675Z,86.07
2022-12-04T21:56:40.111Z,83.55
2022-12-04T21:59:07.357Z,83.39
2022-12-04T22:01:33.900Z,84.21
2022-12-04T22:04:00.387Z,85.52
2022-12-04T22:06:28.489Z,83.45
2022-12-04T22:08:55.674Z,84.27
2022-12-04T22:11:22.670Z,82.91
2022-12-04T22:13:49.172Z,85.33
2022-12-04T22:16:17.246Z,83.83
2022-12-04T22:18:43.827Z,84.68
2022-12-04T22:21:13.687Z,85.01
2022-12-04T22:23:40.815Z,85.50
2022-12-04T22:26:08.791Z,84.08
2022-12-04T22:28:35.607Z,84.33
2022-12-04T22:31:03.626Z,84.69
2022-12-04T22:33:30.535Z,85.26
2022-12-04T22:36:02.503Z,84.40
2022-12-04T22:38:29.371Z,83.95
2022-12-04T22:40:59.174Z,86.08
2022-12-04T22:43:26.583Z,84.77
2022-12-04T22:45:53.076Z,85.13
2022-12-04T22:48:19.527Z,85.68
2022-12-04T22:50:45.987Z,85.89
2022-12-04T22:53:13.000Z,86.77
2022-12-04T22:55:39.862Z,86.53
2022-12-04T22:58:06.347Z,85.45
2022-12-04T23:00:32.762Z,84.26
2022-12-04T23:02:59.300Z,84.16
2022-12-04T23:05:25.834Z,83.60
2022-12-04T23:07:52.464Z,84.27
2022-12-04T23:10:18.999Z,86.17
2022-12-04T23:12:45.480Z,87.92
2022-12-04T23:15:11.886Z,87.70
2022-12-04T23:17:38.331Z,89.32
2022-12-04T23:20:05.432Z,89.57
2022-12-04T23:22:31.891Z,89.83
2022-12-04T23:24:58.331Z,89.90
2022-12-04T23:27:24.781Z,90.22
2022-12-04T23:29:53.675Z,87.41
2022-12-04T23:32:20.472Z,87.01
2022-12-04T23:34:46.883Z,89.60
2022-12-04T23:37:13.385Z,90.37
2022-12-04T23:39:39.795Z,89.00
2022-12-04T23:42:06.266Z,88.79
2022-12-04T23:44:32.732Z,88.28
2022-12-04T23:46:59.298Z,87.31
2022-12-04T23:49:25.862Z,88.28
2022-12-04T23:51:52.388Z,89.12
2022-12-04T23:54:18.815Z,88.19
2022-12-04T23:56:45.383Z,87.88
2022-12-04T23:59:11.823Z,87.03
